Time;durP1;ratioP1;P1;durP2;ratioP2;P2;SDS_P1;SDS_P2;PMS_P1;PMS_P2;Temp;Humidity;BMP_temperature;BMP_pressure;BME280_temperature;BME280_humidity;BME280_pressure;Samples;Min_cycle;Max_cycle;Signal;HPM_P1;HPM_P2
2023/04/14 00:02:08;;;;;;;5.77;5.27;;;10.70;95.70;;;;;;4999153;28;20232;-62
2023/04/14 00:04:35;;;;;;;5.43;4.93;;;10.70;95.70;;;;;;5001696;28;20217;-62
2023/04/14 00:07:02;;;;;;;5.90;5.40;;;10.70;95.70;;;;;;5001536;28;20222;-62
2023/04/14 00:09:29;;;;;;;6.00;5.47;;;10.60;95.60;;;;;;5003006;28;20295;-62
2023/04/14 00:11:56;;;;;;;6.30;5.70;;;10.70;95.60;;;;;;5001159;28;20235;-62
2023/04/14 00:14:23;;;;;;;5.60;5.10;;;10.60;95.60;;;;;;5003671;28;20213;-62
2023/04/14 00:16:50;;;;;;;5.73;5.20;;;10.60;95.60;;;;;;5005406;28;20206;-62
2023/04/14 00:19:17;;;;;;;9.23;5.60;;;10.60;95.60;;;;;;4999546;28;20215;-62
2023/04/14 00:21:44;;;;;;;5.37;4.87;;;10.70;95.60;;;;;;5006579;28;20219;-62
2023/04/14 00:24:11;;;;;;;5.90;5.30;;;10.70;95.60;;;;;;5004336;28;20268;-62
2023/04/14 00:26:38;;;;;;;5.87;5.27;;;10.60;95.60;;;;;;5004554;28;20215;-62
2023/04/14 00:29:05;;;;;;;5.07;4.57;;;10.60;95.60;;;;;;5011446;28;20201;-62
2023/04/14 00:31:33;;;;;;;6.77;5.20;;;10.60;95.60;;;;;;5009986;28;20249;-62
2023/04/14 00:34:00;;;;;;;5.77;5.27;;;10.60;95.70;;;;;;5033052;28;20278;-61
2023/04/14 00:36:27;;;;;;;9.23;5.80;;;10.70;95.70;;;;;;5009884;28;20206;-61
2023/04/14 00:38:54;;;;;;;5.30;4.87;;;10.70;95.70;;;;;;5008516;28;20551;-61
2023/04/14 00:41:23;;;;;;;5.60;5.10;;;10.70;95.70;;;;;;5003449;28;20698;-60
2023/04/14 00:43:54;;;;;;;5.40;5.00;;;10.70;95.70;;;;;;5003273;28;20197;-61
2023/04/14 00:46:21;;;;;;;6.13;5.30;;;10.70;95.70;;;;;;5006599;28;20210;-61
2023/04/14 00:48:49;;;;;;;6.47;5.57;;;10.70;95.70;;;;;;5005169;28;20283;-61
2023/04/14 00:51:16;;;;;;;5.33;4.83;;;10.70;95.70;;;;;;5011022;28;20212;-60
2023/04/14 00:53:43;;;;;;;5.80;5.30;;;10.70;95.70;;;;;;5022513;28;20219;-60
2023/04/14 00:56:11;;;;;;;5.33;4.83;;;10.70;95.70;;;;;;5000457;28;20596;-60
2023/04/14 00:58:38;;;;;;;5.90;5.40;;;10.70;95.70;;;;;;5004719;28;20333;-60
2023/04/14 01:01:05;;;;;;;6.37;4.97;;;10.70;95.70;;;;;;5003532;28;20294;-61
2023/04/14 01:03:32;;;;;;;5.40;4.90;;;10.70;95.70;;;;;;5006846;28;20216;-60
2023/04/14 01:06:00;;;;;;;6.90;5.30;;;10.70;95.70;;;;;;5036540;28;20211;-60
2023/04/14 01:08:27;;;;;;;5.87;5.33;;;10.70;95.70;;;;;;5011172;28;20217;-60
2023/04/14 01:11:10;;;;;;;6.03;5.17;;;10.70;95.70;;;;;;5010144;28;20294;-61
2023/04/14 01:13:58;;;;;;;6.47;4.60;;;10.70;95.70;;;;;;5006297;28;20760;-60
2023/04/14 01:16:32;;;;;;;5.57;5.07;;;10.60;95.70;;;;;;5005530;28;20245;-60
2023/04/14 01:19:19;;;;;;;4.77;4.37;;;10.60;95.70;;;;;;5011325;28;20208;-60
2023/04/14 01:21:52;;;;;;;6.10;4.90;;;10.60;95.70;;;;;;5022545;28;20211;-61
2023/04/14 01:24:39;;;;;;;6.17;5.40;;;10.60;95.60;;;;;;5010506;28;20272;-60
2023/04/14 01:27:39;;;;;;;6.17;4.97;;;10.50;95.70;;;;;;5021937;28;20497;-61
2023/04/14 01:30:21;;;;;;;6.23;4.60;;;10.50;95.70;;;;;;5004827;28;20199;-61
2023/04/14 01:32:52;;;;;;;5.27;4.23;;;10.50;95.70;;;;;;5015276;28;20214;-60
2023/04/14 01:35:32;;;;;;;5.17;4.67;;;10.50;95.80;;;;;;5041816;28;20257;-60
2023/04/14 01:38:05;;;;;;;5.30;4.80;;;10.50;95.80;;;;;;5007534;28;20306;-61
2023/04/14 01:40:33;;;;;;;4.87;4.37;;;10.50;95.80;;;;;;5037244;28;20215;-60
2023/04/14 01:43:07;;;;;;;8.57;4.80;;;10.40;95.80;;;;;;5031730;28;20529;-61
2023/04/14 01:45:43;;;;;;;4.83;4.43;;;10.50;95.80;;;;;;5033859;28;20266;-61
2023/04/14 01:48:11;;;;;;;5.80;5.30;;;10.40;96.10;;;;;;5022428;28;20222;-60
2023/04/14 01:50:40;;;;;;;5.60;4.77;;;10.40;95.80;;;;;;5002217;28;20313;-60
2023/04/14 01:53:11;;;;;;;5.00;4.50;;;10.40;95.90;;;;;;5012703;28;20211;-60
2023/04/14 01:55:40;;;;;;;5.07;4.57;;;10.40;95.90;;;;;;5010716;28;20247;-60
2023/04/14 01:58:08;;;;;;;5.13;4.70;;;10.40;95.90;;;;;;5039497;28;20218;-60
2023/04/14 02:00:39;;;;;;;4.73;4.37;;;10.40;95.90;;;;;;5011426;28;20297;-61
2023/04/14 02:03:06;;;;;;;3.73;3.43;;;10.40;95.90;;;;;;5013173;28;20199;-60
2023/04/14 02:05:37;;;;;;;4.33;3.93;;;10.40;95.90;;;;;;5001585;28;20529;-60
2023/04/14 02:08:09;;;;;;;5.40;4.87;;;10.30;95.90;;;;;;5008313;28;20231;-61
2023/04/14 02:10:39;;;;;;;4.43;4.03;;;10.30;95.90;;;;;;5012288;28;20218;-61
2023/04/14 02:13:09;;;;;;;4.30;4.00;;;10.30;95.80;;;;;;5004594;28;20204;-60
2023/04/14 02:15:39;;;;;;;4.00;3.70;;;10.30;95.90;;;;;;5006568;28;20302;-61
2023/04/14 02:18:07;;;;;;;5.30;4.37;;;10.20;95.80;;;;;;5013209;28;20208;-61
2023/04/14 02:20:41;;;;;;;4.00;3.60;;;10.20;95.80;;;;;;5011063;28;20205;-61
2023/04/14 02:23:10;;;;;;;3.70;3.33;;;10.20;95.80;;;;;;5005782;28;20599;-60
2023/04/14 02:25:44;;;;;;;3.93;3.57;;;10.10;95.80;;;;;;5005453;28;20638;-61
2023/04/14 02:28:25;;;;;;;4.23;3.87;;;10.10;95.90;;;;;;5005052;28;20213;-60
2023/04/14 02:30:56;;;;;;;3.50;3.20;;;10.10;95.90;;;;;;5007090;28;20291;-60
2023/04/14 02:33:30;;;;;;;3.97;3.67;;;10.10;95.90;;;;;;5009965;28;20289;-60
2023/04/14 02:36:28;;;;;;;3.77;3.47;;;10.10;95.90;;;;;;5010845;28;20242;-60
2023/04/14 02:38:59;;;;;;;3.87;3.47;;;10.10;95.90;;;;;;5003440;28;20215;-60
2023/04/14 02:41:29;;;;;;;4.53;4.07;;;10.10;95.90;;;;;;5025763;28;20213;-60
2023/04/14 02:44:26;;;;;;;4.20;3.80;;;10.10;96.20;;;;;;5008988;28;20206;-60
2023/04/14 02:47:10;;;;;;;4.23;3.83;;;10.00;95.90;;;;;;5031525;28;20300;-60
2023/04/14 02:49:45;;;;;;;5.50;4.30;;;10.10;96.00;;;;;;5016483;28;20260;-60
2023/04/14 02:52:16;;;;;;;4.97;4.13;;;10.10;95.90;;;;;;5013346;28;20252;-60
2023/04/14 02:54:46;;;;;;;4.37;3.90;;;10.00;95.90;;;;;;5038372;28;20297;-60
2023/04/14 02:57:15;;;;;;;4.37;3.97;;;10.00;95.90;;;;;;5034692;28;20224;-60
2023/04/14 02:59:46;;;;;;;4.80;4.40;;;10.00;96.00;;;;;;5008528;28;20213;-60
2023/04/14 03:02:16;;;;;;;4.30;4.00;;;10.00;96.00;;;;;;5039299;28;20219;-60
2023/04/14 03:04:48;;;;;;;4.60;4.20;;;10.00;96.10;;;;;;5012822;28;20209;-60
2023/04/14 03:07:26;;;;;;;4.80;3.90;;;10.00;96.10;;;;;;5032717;28;20209;-60
2023/04/14 03:09:54;;;;;;;4.23;3.83;;;10.00;96.10;;;;;;5001362;28;20238;-61
2023/04/14 03:12:23;;;;;;;5.00;4.50;;;9.90;96.10;;;;;;5009056;28;20266;-60
2023/04/14 03:14:51;;;;;;;4.97;4.57;;;10.00;96.20;;;;;;5015107;28;20222;-60
2023/04/14 03:17:20;;;;;;;4.37;3.97;;;10.00;96.20;;;;;;5037257;28;20221;-59
2023/04/14 03:19:51;;;;;;;4.80;4.30;;;10.00;96.20;;;;;;5016219;28;20346;-60
2023/04/14 03:22:20;;;;;;;5.40;4.90;;;10.00;96.20;;;;;;5010767;28;20301;-60
2023/04/14 03:24:49;;;;;;;4.53;4.13;;;9.90;96.20;;;;;;5003629;28;20209;-60
2023/04/14 03:27:21;;;;;;;4.93;4.43;;;9.90;96.20;;;;;;5003150;28;20206;-60
2023/04/14 03:29:52;;;;;;;6.30;4.60;;;9.90;96.20;;;;;;5001195;28;20647;-61
2023/04/14 03:32:24;;;;;;;4.83;4.43;;;9.90;96.30;;;;;;5002878;28;20585;-60
2023/04/14 03:34:56;;;;;;;5.53;4.50;;;9.90;96.40;;;;;;5011571;28;20206;-60
2023/04/14 03:37:26;;;;;;;5.87;4.90;;;9.90;96.40;;;;;;5029640;28;20222;-60
2023/04/14 03:39:59;;;;;;;5.77;5.17;;;9.90;96.40;;;;;;5002258;28;20645;-60
2023/04/14 03:42:29;;;;;;;5.90;5.30;;;9.90;96.50;;;;;;5007369;28;20302;-60
2023/04/14 03:44:59;;;;;;;5.67;5.17;;;9.90;96.50;;;;;;5000493;28;20238;-60
2023/04/14 03:47:30;;;;;;;5.57;4.97;;;9.90;96.60;;;;;;5002243;28;20207;-60
2023/04/14 03:50:01;;;;;;;4.90;4.40;;;9.90;96.60;;;;;;5004620;28;20238;-60
2023/04/14 03:52:34;;;;;;;6.73;6.03;;;9.90;96.50;;;;;;5011559;28;20207;-61
2023/04/14 03:55:05;;;;;;;6.40;5.80;;;9.90;96.50;;;;;;5007949;28;20294;-60
2023/04/14 03:57:36;;;;;;;6.43;5.87;;;9.90;96.60;;;;;;5011871;28;20235;-60
2023/04/14 04:00:07;;;;;;;6.43;5.83;;;9.90;96.60;;;;;;5013839;28;20262;-60
2023/04/14 04:02:42;;;;;;;6.67;5.97;;;9.90;96.60;;;;;;5005569;28;20200;-60
2023/04/14 04:05:11;;;;;;;6.63;6.03;;;9.90;96.60;;;;;;5005250;28;20202;-60
2023/04/14 04:07:40;;;;;;;6.40;5.80;;;9.90;96.70;;;;;;5005297;28;20220;-60
2023/04/14 04:10:07;;;;;;;6.23;5.63;;;9.90;96.70;;;;;;4998514;28;20293;-60
2023/04/14 04:12:36;;;;;;;8.57;6.50;;;9.90;96.70;;;;;;5009669;28;20212;-60
2023/04/14 04:15:07;;;;;;;8.00;6.37;;;9.90;96.70;;;;;;5005377;28;20296;-60
2023/04/14 04:17:36;;;;;;;6.57;5.97;;;9.90;96.70;;;;;;5009912;28;20215;-60
2023/04/14 04:20:15;;;;;;;6.47;5.97;;;9.90;96.70;;;;;;5007784;28;20206;-60
2023/04/14 04:22:48;;;;;;;6.93;6.33;;;9.90;96.70;;;;;;5018489;28;20207;-60
2023/04/14 04:25:16;;;;;;;7.00;6.40;;;9.90;96.70;;;;;;5002421;28;20298;-60
2023/04/14 04:27:50;;;;;;;8.17;6.77;;;9.90;96.70;;;;;;5008595;28;20202;-60
2023/04/14 04:30:20;;;;;;;6.67;6.07;;;9.90;96.70;;;;;;5039549;28;20249;-60
2023/04/14 04:32:47;;;;;;;7.03;6.33;;;9.90;96.70;;;;;;5019819;28;20206;-60
2023/04/14 04:35:16;;;;;;;7.70;6.83;;;9.90;96.70;;;;;;5022684;28;20202;-60
2023/04/14 04:37:46;;;;;;;7.30;6.60;;;9.90;96.70;;;;;;5035747;28;20588;-60
2023/04/14 04:40:13;;;;;;;7.50;6.80;;;9.90;96.50;;;;;;5034647;28;20206;-60
2023/04/14 04:42:41;;;;;;;7.60;6.90;;;9.90;96.40;;;;;;5008084;28;20243;-60
2023/04/14 04:45:11;;;;;;;7.23;6.53;;;9.90;96.50;;;;;;5004604;28;20229;-60
2023/04/14 04:47:40;;;;;;;7.43;6.73;;;9.90;96.60;;;;;;5036165;28;20594;-60
2023/04/14 04:50:07;;;;;;;8.20;7.33;;;9.90;96.60;;;;;;5011936;28;20209;-60
2023/04/14 04:52:34;;;;;;;7.57;6.80;;;9.90;96.70;;;;;;5005332;28;20237;-61
2023/04/14 04:55:01;;;;;;;8.33;7.53;;;9.90;96.70;;;;;;5006563;28;20225;-60
2023/04/14 04:57:28;;;;;;;7.53;6.83;;;9.90;96.70;;;;;;5003380;28;20213;-60
2023/04/14 04:59:55;;;;;;;8.80;6.87;;;10.00;96.70;;;;;;5004658;28;20278;-60
2023/04/14 05:02:22;;;;;;;7.90;6.97;;;9.90;96.70;;;;;;5010517;28;20211;-60
2023/04/14 05:04:50;;;;;;;7.43;6.73;;;10.00;96.70;;;;;;5010162;28;20459;-60
2023/04/14 05:07:18;;;;;;;7.20;6.50;;;10.00;96.70;;;;;;5008112;28;20202;-60
2023/04/14 05:09:45;;;;;;;8.23;7.43;;;10.00;96.70;;;;;;5003931;28;20260;-60
2023/04/14 05:12:12;;;;;;;8.57;7.50;;;10.00;96.70;;;;;;5004359;28;20192;-60
2023/04/14 05:14:39;;;;;;;7.47;6.77;;;9.90;96.70;;;;;;5006154;28;20237;-60
2023/04/14 05:17:06;;;;;;;7.17;6.53;;;10.00;96.70;;;;;;5009501;28;20211;-60
2023/04/14 05:19:33;;;;;;;7.63;6.93;;;10.00;96.70;;;;;;5001137;28;20294;-60
2023/04/14 05:22:00;;;;;;;7.90;7.10;;;10.00;96.70;;;;;;5010027;28;20206;-60
2023/04/14 05:24:27;;;;;;;8.00;7.20;;;10.00;96.70;;;;;;5010945;28;20280;-60
2023/04/14 05:26:55;;;;;;;7.07;6.30;;;10.00;96.70;;;;;;5009117;28;20230;-60
2023/04/14 05:29:40;;;;;;;8.13;7.33;;;10.00;96.70;;;;;;5004750;28;20218;-60
2023/04/14 05:32:07;;;;;;;7.03;6.33;;;10.10;96.70;;;;;;5010346;28;20241;-60
2023/04/14 05:34:34;;;;;;;7.37;6.67;;;10.10;96.70;;;;;;5006027;28;20626;-60
2023/04/14 05:37:01;;;;;;;7.57;6.70;;;10.10;96.70;;;;;;5007855;28;20199;-60
2023/04/14 05:39:28;;;;;;;7.07;6.37;;;10.10;96.70;;;;;;5008830;28;20597;-60
2023/04/14 05:41:55;;;;;;;9.13;7.13;;;10.10;96.70;;;;;;5005855;28;20242;-60
2023/04/14 05:44:23;;;;;;;7.43;6.73;;;10.20;96.70;;;;;;5006014;28;20242;-60
2023/04/14 05:46:50;;;;;;;7.20;6.37;;;10.20;96.70;;;;;;5019301;28;20303;-60
2023/04/14 05:49:17;;;;;;;7.77;6.97;;;10.20;96.70;;;;;;5004919;28;20521;-62
2023/04/14 05:51:44;;;;;;;7.53;6.83;;;10.20;96.70;;;;;;5006136;28;20226;-60
2023/04/14 05:54:11;;;;;;;7.80;6.67;;;10.30;96.70;;;;;;5005891;28;20747;-60
2023/04/14 05:56:38;;;;;;;7.90;7.07;;;10.30;96.70;;;;;;5005409;28;20530;-60
2023/04/14 05:59:05;;;;;;;6.90;6.27;;;10.30;96.60;;;;;;5006474;28;20202;-60
2023/04/14 06:01:32;;;;;;;9.50;7.43;;;10.30;96.90;;;;;;5002788;28;20591;-60
2023/04/14 06:03:59;;;;;;;7.10;6.47;;;10.40;96.70;;;;;;5002243;28;20269;-60
2023/04/14 06:06:27;;;;;;;7.53;6.83;;;10.50;96.70;;;;;;5036914;28;20625;-60
2023/04/14 06:08:54;;;;;;;7.40;6.70;;;10.50;96.70;;;;;;5009031;28;20229;-60
2023/04/14 06:11:20;;;;;;;7.70;7.00;;;10.60;96.70;;;;;;5006225;28;20215;-60
2023/04/14 06:13:49;;;;;;;7.60;6.90;;;10.70;96.70;;;;;;5005060;28;20670;-60
2023/04/14 06:16:16;;;;;;;7.73;6.67;;;10.70;96.60;;;;;;5005079;28;20225;-60
2023/04/14 06:18:43;;;;;;;6.80;6.03;;;10.80;96.50;;;;;;5005246;28;20218;-60
2023/04/14 06:21:10;;;;;;;7.37;6.60;;;10.80;96.30;;;;;;5006812;28;20338;-60
2023/04/14 06:23:37;;;;;;;6.77;6.17;;;10.90;96.30;;;;;;5003114;28;20218;-60
2023/04/14 06:26:05;;;;;;;7.07;6.47;;;10.90;96.30;;;;;;5005973;28;20199;-60
2023/04/14 06:28:32;;;;;;;7.30;6.60;;;10.90;96.20;;;;;;5005978;28;20215;-60
2023/04/14 06:30:59;;;;;;;7.93;6.33;;;11.00;96.20;;;;;;5008725;28;20230;-60
2023/04/14 06:33:26;;;;;;;8.30;6.37;;;11.00;96.10;;;;;;4999953;28;20198;-60
2023/04/14 06:35:53;;;;;;;7.33;6.63;;;11.00;96.10;;;;;;5003030;28;20286;-60
2023/04/14 06:38:20;;;;;;;7.77;5.97;;;11.00;96.10;;;;;;5036436;28;20214;-60
2023/04/14 06:40:47;;;;;;;6.37;5.77;;;11.10;96.10;;;;;;5005373;28;20202;-60
2023/04/14 06:43:16;;;;;;;6.73;5.53;;;11.10;96.10;;;;;;5009371;28;20224;-60
2023/04/14 06:45:44;;;;;;;8.27;5.03;;;11.20;96.10;;;;;;5004028;28;20268;-60
2023/04/14 06:48:12;;;;;;;6.20;5.60;;;11.20;96.00;;;;;;5011132;28;20306;-60
2023/04/14 06:50:39;;;;;;;7.23;5.67;;;11.20;95.90;;;;;;5004628;28;20615;-60
2023/04/14 06:53:08;;;;;;;5.30;4.80;;;11.20;95.90;;;;;;5005072;28;20640;-60
2023/04/14 06:55:35;;;;;;;6.13;4.87;;;11.30;95.90;;;;;;5005690;28;20287;-60
2023/04/14 06:58:02;;;;;;;5.00;4.50;;;11.30;95.80;;;;;;5003825;28;20200;-60
2023/04/14 07:00:30;;;;;;;5.27;4.77;;;11.30;95.60;;;;;;4999809;28;20226;-60
2023/04/14 07:02:57;;;;;;;5.00;4.60;;;11.30;95.40;;;;;;5002817;28;20346;-60
2023/04/14 07:05:25;;;;;;;6.00;4.60;;;11.30;95.30;;;;;;5001577;28;20227;-60
2023/04/14 07:07:52;;;;;;;5.30;4.80;;;11.30;95.40;;;;;;5002495;28;20203;-60
2023/04/14 07:10:19;;;;;;;4.80;3.77;;;11.30;95.10;;;;;;5002878;28;20251;-60
2023/04/14 07:12:46;;;;;;;5.03;3.80;;;11.30;95.00;;;;;;5002872;28;20621;-64
2023/04/14 07:15:15;;;;;;;4.43;4.03;;;11.30;94.50;;;;;;5005487;28;20203;-61
2023/04/14 07:17:42;;;;;;;3.97;3.63;;;11.30;94.70;;;;;;5000440;28;20230;-60
2023/04/14 07:20:10;;;;;;;5.00;3.90;;;11.30;94.80;;;;;;5009908;28;20211;-60
2023/04/14 07:22:38;;;;;;;5.83;4.30;;;11.30;94.70;;;;;;5006764;28;20218;-60
2023/04/14 07:25:05;;;;;;;4.60;4.20;;;11.30;94.70;;;;;;5003238;28;20219;-60
2023/04/14 07:27:32;;;;;;;6.10;4.57;;;11.30;94.70;;;;;;5008270;28;20202;-60
2023/04/14 07:29:59;;;;;;;5.83;4.80;;;11.20;94.50;;;;;;5005154;28;20319;-60
2023/04/14 07:32:26;;;;;;;7.50;5.83;;;11.20;94.60;;;;;;5004404;28;20264;-60
2023/04/14 07:34:53;;;;;;;7.27;6.20;;;11.20;94.60;;;;;;5008753;28;20198;-60
2023/04/14 07:37:22;;;;;;;7.10;6.40;;;11.20;94.60;;;;;;5000537;28;20207;-60
2023/04/14 07:39:49;;;;;;;8.40;7.20;;;11.30;94.70;;;;;;5002432;28;20716;-60
2023/04/14 07:42:16;;;;;;;7.37;6.67;;;11.30;94.70;;;;;;5001678;28;20195;-60
2023/04/14 07:44:43;;;;;;;6.90;6.20;;;11.30;94.30;;;;;;5000622;28;20254;-60
2023/04/14 07:47:10;;;;;;;7.90;7.17;;;11.30;94.30;;;;;;5003520;28;20214;-60
2023/04/14 07:49:37;;;;;;;8.13;6.70;;;11.30;94.40;;;;;;5002335;28;20283;-60
2023/04/14 07:52:06;;;;;;;8.80;6.83;;;11.30;94.60;;;;;;5008355;28;20211;-60
2023/04/14 07:54:33;;;;;;;8.43;7.63;;;11.30;94.60;;;;;;5004764;28;20261;-60
2023/04/14 07:57:01;;;;;;;8.40;7.57;;;11.30;94.60;;;;;;5002795;28;20214;-60
2023/04/14 07:59:28;;;;;;;10.00;9.00;;;11.30;94.70;;;;;;5003515;28;20217;-60
2023/04/14 08:01:55;;;;;;;9.00;8.10;;;11.40;94.90;;;;;;5000144;28;20218;-61
2023/04/14 08:04:22;;;;;;;8.80;8.00;;;11.40;95.00;;;;;;5002890;28;20192;-61
2023/04/14 08:06:50;;;;;;;9.97;8.37;;;11.50;95.00;;;;;;5004859;28;20273;-60
2023/04/14 08:09:16;;;;;;;9.73;7.57;;;11.50;95.10;;;;;;4999604;28;20306;-60
2023/04/14 08:11:44;;;;;;;8.43;7.63;;;11.60;95.10;;;;;;5003953;28;20262;-60
2023/04/14 08:14:10;;;;;;;9.23;8.33;;;11.60;94.50;;;;;;5000651;28;20193;-60
2023/04/14 08:16:37;;;;;;;9.03;7.73;;;11.70;94.20;;;;;;5000390;28;20679;-60
2023/04/14 08:19:05;;;;;;;12.57;8.20;;;11.70;94.50;;;;;;5006685;28;20212;-60
2023/04/14 08:21:32;;;;;;;8.27;7.57;;;11.80;94.70;;;;;;4998906;28;20211;-61
2023/04/14 08:23:59;;;;;;;8.03;6.67;;;11.90;94.50;;;;;;5002972;28;20594;-60
2023/04/14 08:26:26;;;;;;;9.03;7.40;;;12.00;94.30;;;;;;5005296;28;20607;-60
2023/04/14 08:28:53;;;;;;;8.13;6.73;;;12.00;94.20;;;;;;5000977;28;20212;-60
2023/04/14 08:31:24;;;;;;;7.73;7.03;;;12.10;94.00;;;;;;5008457;28;20250;-60
2023/04/14 08:33:51;;;;;;;7.30;6.67;;;12.20;93.70;;;;;;5015982;28;20281;-60
2023/04/14 08:36:19;;;;;;;7.63;6.73;;;12.40;93.80;;;;;;5038341;28;20298;-60
2023/04/14 08:38:46;;;;;;;7.43;6.67;;;12.50;93.60;;;;;;5000168;28;20612;-60
2023/04/14 08:41:16;;;;;;;8.83;7.23;;;12.60;93.10;;;;;;5000923;28;20192;-61
2023/04/14 08:43:43;;;;;;;8.37;7.57;;;12.70;93.10;;;;;;5001291;28;20196;-60
2023/04/14 08:46:13;;;;;;;8.27;7.47;;;12.90;93.20;;;;;;4997781;28;20236;-60
2023/04/14 08:48:44;;;;;;;7.23;6.27;;;13.00;93.30;;;;;;5009299;28;20656;-61
2023/04/14 08:51:32;;;;;;;5.37;4.87;;;13.20;93.20;;;;;;5003005;28;20220;-60
2023/04/14 08:54:03;;;;;;;4.80;4.30;;;13.30;92.50;;;;;;5001349;28;20286;-60
2023/04/14 08:56:33;;;;;;;4.23;3.83;;;13.40;91.00;;;;;;5001251;28;20204;-60
2023/04/14 08:59:01;;;;;;;5.07;4.43;;;13.40;89.30;;;;;;5002495;28;20297;-60
2023/04/14 09:01:28;;;;;;;5.20;4.60;;;13.40;89.80;;;;;;5005114;28;20230;-60
2023/04/14 09:03:56;;;;;;;4.97;4.47;;;13.40;90.30;;;;;;5006475;28;20254;-61
2023/04/14 09:06:24;;;;;;;5.37;4.33;;;13.50;90.70;;;;;;5002778;28;20199;-60
2023/04/14 09:08:51;;;;;;;5.80;5.30;;;13.50;90.70;;;;;;5003044;28;20574;-60
2023/04/14 09:11:18;;;;;;;5.70;4.83;;;13.60;91.20;;;;;;5006412;28;20220;-60
2023/04/14 09:13:48;;;;;;;6.13;4.73;;;13.80;91.10;;;;;;5001810;28;20670;-61
2023/04/14 09:16:16;;;;;;;5.37;4.93;;;13.90;91.10;;;;;;5006897;28;20640;-60
2023/04/14 09:18:44;;;;;;;5.70;5.20;;;14.00;91.00;;;;;;5003085;28;20211;-60
2023/04/14 09:21:16;;;;;;;5.17;4.77;;;14.20;90.80;;;;;;5006508;28;20696;-60
2023/04/14 09:24:04;;;;;;;5.60;5.10;;;14.30;90.60;;;;;;5001292;28;20645;-60
2023/04/14 09:26:32;;;;;;;5.83;5.23;;;14.30;90.40;;;;;;5023970;28;20212;-61
2023/04/14 09:28:59;;;;;;;5.10;4.60;;;14.30;90.20;;;;;;5002736;28;20210;-60
2023/04/14 09:31:27;;;;;;;5.87;5.30;;;14.30;90.20;;;;;;5002742;28;20195;-60
2023/04/14 09:33:54;;;;;;;5.97;4.87;;;14.30;90.10;;;;;;5004209;28;20296;-61
2023/04/14 09:36:23;;;;;;;5.03;4.53;;;14.30;90.00;;;;;;5007843;28;20287;-60
2023/04/14 09:38:51;;;;;;;5.53;5.03;;;14.30;90.00;;;;;;5007275;28;20187;-61
2023/04/14 09:41:24;;;;;;;5.57;4.57;;;14.30;89.70;;;;;;5008835;28;20208;-61
2023/04/14 09:43:52;;;;;;;4.83;4.33;;;14.30;89.40;;;;;;5003766;28;20228;-60
2023/04/14 09:46:19;;;;;;;5.30;4.77;;;14.30;89.30;;;;;;4986678;28;20291;-61
2023/04/14 09:48:54;;;;;;;4.77;4.30;;;14.20;89.30;;;;;;4985834;28;20675;-61
2023/04/14 09:51:26;;;;;;;4.43;4.03;;;14.20;89.00;;;;;;4985283;28;20231;-60
2023/04/14 09:53:53;;;;;;;5.27;4.40;;;14.20;89.00;;;;;;4983242;28;20204;-61
2023/04/14 09:56:25;;;;;;;4.10;3.70;;;14.20;89.40;;;;;;4985851;28;20242;-60
2023/04/14 09:58:57;;;;;;;4.67;4.20;;;14.20;88.70;;;;;;4986686;28;20232;-61
2023/04/14 10:01:28;;;;;;;5.00;4.50;;;14.30;88.50;;;;;;4985607;28;20197;-60
2023/04/14 10:03:55;;;;;;;4.40;3.43;;;14.40;88.40;;;;;;4988806;28;20207;-61
2023/04/14 10:06:23;;;;;;;5.00;4.33;;;14.50;88.40;;;;;;4984701;28;20280;-61
2023/04/14 10:08:53;;;;;;;4.33;3.93;;;14.60;88.10;;;;;;4986856;28;20223;-61
2023/04/14 10:11:36;;;;;;;4.07;3.70;;;14.70;87.70;;;;;;4985219;28;20303;-61
2023/04/14 10:14:05;;;;;;;4.20;3.80;;;14.80;86.90;;;;;;4985773;28;20208;-64
2023/04/14 10:16:32;;;;;;;5.00;4.40;;;14.90;86.50;;;;;;4980559;28;20638;-61
2023/04/14 10:19:00;;;;;;;3.63;3.33;;;15.10;86.30;;;;;;4985747;28;20201;-61
2023/04/14 10:21:28;;;;;;;3.80;3.50;;;15.30;86.10;;;;;;4986948;28;20560;-61
2023/04/14 10:23:56;;;;;;;4.13;2.90;;;15.60;85.60;;;;;;4984033;28;20489;-61
2023/04/14 10:26:23;;;;;;;3.77;3.20;;;15.80;84.60;;;;;;4987148;28;20213;-61
2023/04/14 10:28:53;;;;;;;5.17;3.37;;;15.90;83.70;;;;;;4986747;28;20274;-61
2023/04/14 10:31:28;;;;;;;4.10;3.47;;;16.00;83.00;;;;;;4982747;28;20252;-61
2023/04/14 10:33:55;;;;;;;3.80;3.17;;;16.10;82.50;;;;;;4981923;28;20234;-61
2023/04/14 10:36:27;;;;;;;3.50;3.20;;;16.20;82.30;;;;;;4985294;28;20683;-61
2023/04/14 10:39:01;;;;;;;3.90;3.13;;;16.40;81.60;;;;;;4982261;28;20205;-61
2023/04/14 10:41:46;;;;;;;3.63;3.33;;;16.50;81.00;;;;;;4985232;28;20230;-61
2023/04/14 10:44:28;;;;;;;3.40;3.10;;;16.50;80.50;;;;;;4985073;28;20382;-61
2023/04/14 10:46:56;;;;;;;4.30;3.07;;;16.70;80.20;;;;;;5010886;28;20207;-61
2023/04/14 10:49:28;;;;;;;2.43;2.23;;;16.80;79.80;;;;;;5008034;28;20240;-61
2023/04/14 10:52:05;;;;;;;2.80;2.57;;;17.00;79.10;;;;;;5007590;28;20198;-61
2023/04/14 10:54:52;;;;;;;3.90;2.57;;;17.10;78.00;;;;;;5007962;28;20195;-62
2023/04/14 10:57:26;;;;;;;3.50;2.10;;;17.20;78.00;;;;;;5011744;28;20227;-62
2023/04/14 10:59:55;;;;;;;4.00;2.53;;;17.40;77.50;;;;;;5002834;28;20211;-61
2023/04/14 11:02:28;;;;;;;2.23;2.07;;;17.60;76.80;;;;;;5000142;28;20287;-62
2023/04/14 11:05:09;;;;;;;2.07;1.90;;;17.80;76.40;;;;;;5002565;28;20209;-62
2023/04/14 11:07:47;;;;;;;3.73;2.23;;;18.00;74.40;;;;;;5002528;28;20254;-62
2023/04/14 11:10:20;;;;;;;2.60;2.10;;;18.10;74.30;;;;;;4998285;28;20226;-62
2023/04/14 11:13:02;;;;;;;1.73;1.63;;;18.10;74.00;;;;;;5005250;28;20212;-62
2023/04/14 11:15:45;;;;;;;5.13;2.27;;;18.20;72.60;;;;;;5005926;28;20634;-62
2023/04/14 11:18:34;;;;;;;2.13;1.90;;;18.20;72.30;;;;;;5006536;28;20295;-62
2023/04/14 11:21:09;;;;;;;2.20;2.00;;;18.20;72.40;;;;;;5007011;28;20590;-62
2023/04/14 11:23:37;;;;;;;2.30;2.10;;;18.20;71.50;;;;;;5002548;28;20270;-62
2023/04/14 11:26:09;;;;;;;3.63;1.93;;;18.10;69.90;;;;;;5005530;28;20221;-62
2023/04/14 11:28:44;;;;;;;2.67;2.23;;;18.10;70.50;;;;;;5004641;28;20295;-62
2023/04/14 11:31:14;;;;;;;2.07;1.87;;;18.10;71.00;;;;;;5005368;28;20262;-62
2023/04/14 11:33:42;;;;;;;2.43;1.77;;;18.20;70.90;;;;;;5004949;28;20198;-62
2023/04/14 11:36:11;;;;;;;1.83;1.73;;;18.30;69.40;;;;;;5006000;28;20293;-62
2023/04/14 11:38:41;;;;;;;1.90;1.80;;;18.40;68.70;;;;;;5005669;28;20190;-62
2023/04/14 11:41:08;;;;;;;2.87;2.37;;;18.50;68.40;;;;;;5004588;28;20230;-63
2023/04/14 11:43:45;;;;;;;3.90;2.30;;;18.50;68.30;;;;;;5002227;28;20679;-62
2023/04/14 11:46:12;;;;;;;4.13;2.70;;;18.50;68.90;;;;;;5004651;28;20301;-62
2023/04/14 11:48:40;;;;;;;2.57;2.37;;;18.50;69.00;;;;;;5005973;28;20223;-62
2023/04/14 11:51:07;;;;;;;2.43;2.23;;;18.40;68.40;;;;;;4999787;28;20255;-63
2023/04/14 11:53:35;;;;;;;2.93;2.67;;;18.40;67.20;;;;;;5002154;28;20284;-62
2023/04/14 11:56:05;;;;;;;2.13;1.93;;;18.30;67.50;;;;;;5006089;28;20205;-63
2023/04/14 11:58:32;;;;;;;2.47;2.23;;;18.30;67.90;;;;;;5001918;28;20198;-62
2023/04/14 12:01:00;;;;;;;1.80;1.70;;;18.30;67.60;;;;;;5001571;28;20904;-63
2023/04/14 12:03:28;;;;;;;2.47;1.40;;;18.30;68.20;;;;;;5000003;28;20614;-62
2023/04/14 12:05:58;;;;;;;12.60;8.70;;;18.30;67.30;;;;;;5006459;28;20233;-62
2023/04/14 12:08:29;;;;;;;13.33;11.73;;;18.20;66.80;;;;;;5035957;28;20540;-63
2023/04/14 12:10:56;;;;;;;10.23;4.47;;;18.20;65.40;;;;;;5004768;28;20217;-63
2023/04/14 12:13:25;;;;;;;27.63;17.83;;;18.20;65.00;;;;;;5002850;28;20299;-63
2023/04/14 12:15:53;;;;;;;38.13;22.17;;;18.30;64.20;;;;;;5006664;28;20201;-63
2023/04/14 12:18:20;;;;;;;6.00;3.20;;;18.40;63.60;;;;;;5004372;28;20280;-63
2023/04/14 12:20:53;;;;;;;10.60;6.00;;;18.50;63.50;;;;;;5014471;28;20221;-63
2023/04/14 12:23:21;;;;;;;11.43;4.40;;;18.70;62.90;;;;;;4999501;28;20213;-63
2023/04/14 12:25:48;;;;;;;1.53;1.10;;;18.90;63.10;;;;;;5011813;28;20620;-63
2023/04/14 12:28:24;;;;;;;2.67;1.17;;;19.10;62.80;;;;;;5008504;28;20218;-63
2023/04/14 12:30:53;;;;;;;9.27;3.20;;;19.30;61.90;;;;;;5004308;28;20273;-63
2023/04/14 12:33:25;;;;;;;1.37;1.07;;;19.30;61.20;;;;;;5001269;28;20206;-63
2023/04/14 12:35:52;;;;;;;3.93;1.87;;;19.40;61.10;;;;;;5006651;28;20679;-63
2023/04/14 12:38:26;;;;;;;2.57;0.97;;;19.30;60.50;;;;;;5000664;28;20262;-63
2023/04/14 12:40:55;;;;;;;1.13;1.03;;;19.10;60.20;;;;;;5004413;28;20999;-63
2023/04/14 12:43:35;;;;;;;2.70;1.17;;;19.00;60.20;;;;;;5002612;28;20249;-63
2023/04/14 12:46:04;;;;;;;1.30;1.20;;;18.90;60.40;;;;;;5004941;28;20249;-64
2023/04/14 12:48:43;;;;;;;3.80;1.47;;;19.10;60.30;;;;;;5002325;28;20309;-63
2023/04/14 12:51:13;;;;;;;1.50;1.40;;;19.20;60.20;;;;;;5006445;28;20306;-63
2023/04/14 12:53:41;;;;;;;1.27;0.90;;;19.40;59.40;;;;;;4997297;28;20588;-63
2023/04/14 12:56:12;;;;;;;0.87;0.87;;;19.50;59.10;;;;;;5020660;28;20243;-63
2023/04/14 12:58:42;;;;;;;1.10;0.90;;;19.70;59.20;;;;;;5000647;28;20598;-63
2023/04/14 13:01:10;;;;;;;1.37;1.23;;;19.80;58.80;;;;;;5002306;28;20774;-63
2023/04/14 13:03:44;;;;;;;1.93;1.30;;;19.90;58.70;;;;;;5004375;28;20300;-63